Time;durP1;ratioP1;P1;durP2;ratioP2;P2;SDS_P1;SDS_P2;PMS_P1;PMS_P2;Temp;Humidity;BMP_temperature;BMP_pressure;BME280_temperature;BME280_humidity;BME280_pressure;Samples;Min_cycle;Max_cycle;Signal;HPM_P1;HPM_P2
2024/01/03 00:04:57;;;;;;;4.53;0.80;;;23.10;47.70;;;;;;10242410;28;20054;-46
2024/01/03 00:10:00;;;;;;;2.35;0.80;;;23.00;47.80;;;;;;10240468;28;20501;-45
2024/01/03 00:15:04;;;;;;;3.13;0.93;;;22.80;47.90;;;;;;10242410;28;20057;-45
2024/01/03 00:20:07;;;;;;;3.05;0.90;;;23.00;47.60;;;;;;10223023;28;20135;-45
2024/01/03 00:25:09;;;;;;;3.80;0.70;;;22.90;47.70;;;;;;10193793;28;20048;-45
2024/01/03 00:30:14;;;;;;;1.02;0.50;;;22.80;47.90;;;;;;10212445;28;20051;-46
2024/01/03 00:35:15;;;;;;;1.95;0.60;;;22.70;47.90;;;;;;10230042;28;20055;-49
2024/01/03 00:40:50;;;;;;;1.98;0.60;;;22.70;47.90;;;;;;10200850;28;20436;-48
2024/01/03 00:45:53;;;;;;;1.40;0.57;;;22.60;48.20;;;;;;10193779;28;20056;-45
2024/01/03 00:50:54;;;;;;;1.55;0.55;;;22.60;47.80;;;;;;10190326;28;20063;-49
2024/01/03 00:55:56;;;;;;;2.88;0.85;;;22.60;48.00;;;;;;10198856;28;20085;-48
2024/01/03 01:00:59;;;;;;;1.40;0.65;;;22.60;48.00;;;;;;10238001;28;20058;-44
2024/01/03 01:06:00;;;;;;;3.38;0.80;;;22.50;48.10;;;;;;10213864;28;20147;-46
2024/01/03 01:11:02;;;;;;;3.00;0.68;;;22.50;48.00;;;;;;10210209;28;20056;-46
2024/01/03 01:16:06;;;;;;;0.98;0.60;;;22.40;48.10;;;;;;10239362;28;20393;-45
2024/01/03 01:21:07;;;;;;;0.95;0.60;;;22.30;48.30;;;;;;10218985;28;20056;-46
2024/01/03 01:26:09;;;;;;;1.00;0.60;;;22.40;48.10;;;;;;10194214;28;20069;-47
2024/01/03 01:31:12;;;;;;;1.60;0.60;;;22.30;48.30;;;;;;10184279;28;20047;-45
2024/01/03 01:36:15;;;;;;;1.83;0.80;;;22.30;48.20;;;;;;10187465;28;20054;-49
2024/01/03 01:41:19;;;;;;;1.98;0.93;;;22.20;48.10;;;;;;10196759;28;20059;-45
2024/01/03 01:46:22;;;;;;;2.88;0.65;;;22.10;48.40;;;;;;10207192;28;20546;-47
2024/01/03 01:51:24;;;;;;;1.02;0.60;;;22.20;48.40;;;;;;10232291;28;20050;-47
2024/01/03 01:56:25;;;;;;;3.08;0.60;;;22.10;48.40;;;;;;10225191;28;20047;-45
2024/01/03 02:01:28;;;;;;;1.67;1.00;;;21.90;48.70;;;;;;10214284;28;20055;-45
2024/01/03 02:06:30;;;;;;;2.47;0.50;;;22.10;48.50;;;;;;10236542;28;20508;-45
2024/01/03 02:11:31;;;;;;;0.57;0.40;;;21.90;48.80;;;;;;10214548;28;20044;-45
2024/01/03 02:16:34;;;;;;;1.73;0.68;;;21.90;48.70;;;;;;10188928;28;20143;-49
2024/01/03 02:21:37;;;;;;;0.95;0.70;;;21.80;48.70;;;;;;10208413;28;20051;-44
2024/01/03 02:26:39;;;;;;;2.10;0.63;;;21.80;48.60;;;;;;10228705;28;20051;-45
2024/01/03 02:31:40;;;;;;;1.38;0.50;;;21.80;49.40;;;;;;10233946;28;20043;-45
2024/01/03 02:36:43;;;;;;;1.42;0.50;;;21.80;48.50;;;;;;10225456;28;20047;-47
2024/01/03 02:41:45;;;;;;;1.70;0.60;;;21.80;48.60;;;;;;10242243;28;20612;-45
2024/01/03 02:46:47;;;;;;;1.55;0.70;;;21.80;48.50;;;;;;10220074;28;20048;-45
2024/01/03 02:51:50;;;;;;;1.30;0.60;;;21.70;48.80;;;;;;10205509;28;20071;-45
2024/01/03 02:56:53;;;;;;;1.25;0.70;;;21.60;48.70;;;;;;10197206;28;20480;-45
2024/01/03 03:01:55;;;;;;;1.35;0.60;;;21.60;48.60;;;;;;10196067;28;20052;-48
2024/01/03 03:06:58;;;;;;;1.17;0.60;;;21.60;48.70;;;;;;10202475;29;20562;-45
2024/01/03 03:11:59;;;;;;;1.83;0.70;;;21.50;48.90;;;;;;10202044;28;20417;-48
2024/01/03 03:17:01;;;;;;;0.60;0.40;;;21.60;48.80;;;;;;10215905;28;20153;-44
2024/01/03 03:22:04;;;;;;;1.60;0.50;;;21.40;48.80;;;;;;10253978;28;20045;-45
2024/01/03 03:27:06;;;;;;;0.77;0.45;;;21.40;48.90;;;;;;10241709;28;20059;-46
2024/01/03 03:32:07;;;;;;;1.13;0.50;;;21.40;48.90;;;;;;10214708;28;20043;-45
2024/01/03 03:37:11;;;;;;;0.98;0.50;;;21.40;48.90;;;;;;10211053;28;20062;-47
2024/01/03 03:42:12;;;;;;;0.60;0.40;;;21.20;48.90;;;;;;10200639;28;20068;-45
2024/01/03 03:47:14;;;;;;;1.75;0.47;;;21.30;49.00;;;;;;10220279;28;20043;-46
2024/01/03 03:52:17;;;;;;;0.80;0.50;;;21.20;48.80;;;;;;10237070;28;20417;-47
2024/01/03 03:57:18;;;;;;;3.38;0.80;;;21.20;49.50;;;;;;10229098;28;20147;-46
2024/01/03 04:02:20;;;;;;;0.88;0.50;;;21.20;49.00;;;;;;10203620;28;20055;-45
2024/01/03 04:07:23;;;;;;;1.38;0.50;;;21.30;48.70;;;;;;10193166;28;20159;-44
2024/01/03 04:12:24;;;;;;;1.30;0.50;;;21.80;48.20;;;;;;10197524;28;20109;-44
2024/01/03 04:17:26;;;;;;;1.15;0.50;;;21.80;49.50;;;;;;10189324;28;20048;-48
2024/01/03 04:22:29;;;;;;;3.25;0.40;;;21.90;49.90;;;;;;10211985;28;20043;-45
2024/01/03 04:27:31;;;;;;;1.08;0.57;;;22.10;49.90;;;;;;10235518;28;20523;-45
2024/01/03 04:32:33;;;;;;;1.48;0.40;;;22.30;50.00;;;;;;10234645;28;20497;-48
2024/01/03 04:37:36;;;;;;;1.13;0.40;;;22.60;49.40;;;;;;10228584;28;20050;-45
2024/01/03 04:42:37;;;;;;;5.25;1.27;;;22.80;49.00;;;;;;10219723;28;20043;-50
2024/01/03 04:47:40;;;;;;;21.25;2.63;;;22.90;49.30;;;;;;10230998;28;20138;-45
2024/01/03 04:52:43;;;;;;;18.15;2.22;;;23.10;49.80;;;;;;10234356;28;20062;-46
2024/01/03 04:57:45;;;;;;;9.38;1.83;;;23.10;50.00;;;;;;10203995;28;20110;-46
2024/01/03 05:02:47;;;;;;;13.32;2.10;;;23.20;50.50;;;;;;10192246;28;20037;-47
2024/01/03 05:07:50;;;;;;;10.90;1.73;;;23.20;50.70;;;;;;10213809;28;20318;-50
2024/01/03 05:12:51;;;;;;;7.10;1.60;;;23.30;50.90;;;;;;10225833;28;20504;-45
2024/01/03 05:17:53;;;;;;;4.22;1.65;;;23.40;50.70;;;;;;10235900;28;20055;-46
2024/01/03 05:22:56;;;;;;;5.03;1.50;;;23.40;50.50;;;;;;10219860;28;20043;-45
2024/01/03 05:27:57;;;;;;;8.55;1.50;;;23.50;50.60;;;;;;10221713;28;20055;-45
2024/01/03 05:32:59;;;;;;;3.33;1.25;;;23.50;50.60;;;;;;10200823;28;20169;-47
2024/01/03 05:38:02;;;;;;;2.08;1.27;;;23.60;50.60;;;;;;10193700;28;20055;-45
2024/01/03 05:43:04;;;;;;;4.75;1.27;;;23.70;50.30;;;;;;10224383;28;20428;-45
2024/01/03 05:48:06;;;;;;;3.88;1.05;;;23.70;50.30;;;;;;10227283;28;20414;-45
2024/01/03 05:53:09;;;;;;;2.15;0.90;;;23.80;50.40;;;;;;10208854;28;20046;-45
2024/01/03 05:58:10;;;;;;;2.88;1.00;;;23.70;50.50;;;;;;10227374;28;20051;-49
2024/01/03 06:03:12;;;;;;;2.85;0.88;;;23.70;50.10;;;;;;10230484;28;20043;-45
2024/01/03 06:08:15;;;;;;;2.33;0.90;;;23.70;49.60;;;;;;10194583;29;20051;-45
2024/01/03 06:13:17;;;;;;;5.90;1.20;;;23.50;49.70;;;;;;10191993;29;20040;-45
2024/01/03 06:18:18;;;;;;;3.78;1.10;;;23.50;51.50;;;;;;10193041;28;20039;-47
2024/01/03 06:23:21;;;;;;;6.75;1.20;;;23.20;52.80;;;;;;10192565;28;20428;-48
2024/01/03 06:28:23;;;;;;;10.90;1.92;;;23.20;52.70;;;;;;10224061;28;20041;-42
2024/01/03 06:33:24;;;;;;;7.55;1.73;;;22.90;52.30;;;;;;10224927;28;20122;-43
2024/01/03 06:38:27;;;;;;;8.43;2.03;;;22.80;52.10;;;;;;10223429;28;20050;-42
2024/01/03 06:43:29;;;;;;;4.45;1.55;;;22.70;51.90;;;;;;10231458;28;20135;-43
2024/01/03 06:48:30;;;;;;;8.30;2.05;;;22.60;51.50;;;;;;10230959;28;20414;-42
2024/01/03 06:53:33;;;;;;;7.63;1.40;;;23.00;50.80;;;;;;10225439;28;20126;-46
2024/01/03 06:58:35;;;;;;;5.85;1.50;;;23.10;50.40;;;;;;10227828;28;20039;-45
2024/01/03 07:03:37;;;;;;;6.70;1.20;;;23.00;50.30;;;;;;10220926;28;20424;-43
2024/01/03 07:08:40;;;;;;;3.80;1.52;;;22.80;50.70;;;;;;10237772;28;20126;-45
2024/01/03 07:13:41;;;;;;;3.13;1.23;;;22.70;50.70;;;;;;10240967;28;20040;-45
2024/01/03 07:18:43;;;;;;;4.10;1.38;;;22.60;51.00;;;;;;10243975;28;20052;-45
2024/01/03 07:23:46;;;;;;;6.40;1.35;;;22.50;51.00;;;;;;10242673;28;20490;-45
2024/01/03 07:28:47;;;;;;;2.95;1.30;;;22.30;51.30;;;;;;10232859;28;20051;-45
2024/01/03 07:33:49;;;;;;;2.60;1.08;;;22.20;51.10;;;;;;10241589;28;20058;-43
2024/01/03 07:38:52;;;;;;;2.85;1.13;;;22.20;51.00;;;;;;10264030;28;20134;-43
2024/01/03 07:43:54;;;;;;;3.97;1.35;;;22.20;50.70;;;;;;10237065;28;20062;-44
2024/01/03 07:48:55;;;;;;;2.03;1.17;;;22.10;50.80;;;;;;10230812;28;20421;-44
2024/01/03 07:53:58;;;;;;;2.55;0.90;;;22.00;51.00;;;;;;10244942;28;20162;-44
2024/01/03 07:59:00;;;;;;;3.42;1.13;;;22.00;50.70;;;;;;10245668;28;20142;-43
2024/01/03 08:04:04;;;;;;;1.70;0.85;;;22.10;50.40;;;;;;10242096;28;20048;-44
2024/01/03 08:09:07;;;;;;;3.85;1.00;;;22.10;50.40;;;;;;10233644;28;20051;-43
2024/01/03 08:14:09;;;;;;;3.35;1.00;;;22.00;50.40;;;;;;10255085;28;20043;-44
2024/01/03 08:19:10;;;;;;;2.70;1.10;;;21.90;50.40;;;;;;10249873;28;20083;-43
2024/01/03 08:24:13;;;;;;;3.45;1.10;;;21.80;50.50;;;;;;10233475;28;20057;-45
2024/01/03 08:29:15;;;;;;;2.83;1.00;;;21.70;50.60;;;;;;10237687;28;20130;-43
2024/01/03 08:34:16;;;;;;;2.03;0.82;;;21.60;50.70;;;;;;10239342;28;20586;-43
2024/01/03 08:39:20;;;;;;;2.28;1.20;;;21.60;50.60;;;;;;10244536;28;20139;-45
2024/01/03 08:44:21;;;;;;;1.92;0.82;;;21.60;50.40;;;;;;10232221;28;20051;-44
2024/01/03 08:49:23;;;;;;;2.95;0.93;;;21.60;50.20;;;;;;10244902;28;20053;-44
2024/01/03 08:54:26;;;;;;;3.55;1.08;;;21.80;49.60;;;;;;10226628;28;20527;-45
2024/01/03 08:59:27;;;;;;;2.20;1.00;;;21.60;50.00;;;;;;10240095;28;20134;-43
2024/01/03 09:04:29;;;;;;;1.70;0.90;;;21.50;49.90;;;;;;10250580;28;20130;-43
2024/01/03 09:09:32;;;;;;;1.33;0.90;;;21.50;49.90;;;;;;10245416;28;20043;-44
2024/01/03 09:14:34;;;;;;;3.50;0.93;;;21.50;49.70;;;;;;10228891;28;20040;-45
2024/01/03 09:19:37;;;;;;;2.65;1.10;;;21.60;49.50;;;;;;10186464;29;20052;-47
2024/01/03 09:24:39;;;;;;;4.50;1.05;;;21.50;49.40;;;;;;10184587;28;20054;-43
2024/01/03 09:29:42;;;;;;;2.28;1.00;;;21.50;49.10;;;;;;10197728;28;20062;-48
2024/01/03 09:34:44;;;;;;;1.88;0.93;;;21.40;49.50;;;;;;10191000;28;20048;-44
2024/01/03 09:39:47;;;;;;;3.08;1.02;;;21.20;49.60;;;;;;10195882;28;20076;-44
2024/01/03 09:44:50;;;;;;;1.77;0.90;;;21.30;49.50;;;;;;10232853;28;20063;-44
2024/01/03 09:49:51;;;;;;;1.98;0.80;;;21.20;49.40;;;;;;10231376;28;20496;-45
2024/01/03 09:54:55;;;;;;;2.15;0.82;;;21.20;49.30;;;;;;10242071;28;20134;-43
2024/01/03 09:59:58;;;;;;;1.90;0.82;;;21.10;49.20;;;;;;10225334;28;20040;-44
2024/01/03 10:05:00;;;;;;;2.20;0.85;;;21.10;49.20;;;;;;10226672;28;20043;-45
2024/01/03 10:10:03;;;;;;;0.90;0.70;;;21.20;48.80;;;;;;10238918;28;20047;-43
2024/01/03 10:15:15;;;;;;;2.05;0.80;;;21.10;49.00;;;;;;10240166;28;20047;-43
2024/01/03 10:20:26;;;;;;;2.13;1.02;;;21.10;49.00;;;;;;10256053;28;20047;-46
2024/01/03 10:25:29;;;;;;;1.63;0.88;;;21.00;49.00;;;;;;10274893;28;20051;-44
2024/01/03 10:30:31;;;;;;;2.05;0.95;;;21.00;49.20;;;;;;10235545;28;20090;-45
2024/01/03 10:35:33;;;;;;;3.10;1.20;;;21.00;48.80;;;;;;10233458;28;20741;-43
2024/01/03 10:40:39;;;;;;;1.80;0.80;;;21.00;48.60;;;;;;10230130;28;20146;-44
2024/01/03 10:45:41;;;;;;;1.70;0.85;;;20.90;48.80;;;;;;10236414;28;20049;-47
2024/01/03 10:50:43;;;;;;;2.17;1.00;;;20.80;49.00;;;;;;10249507;28;20516;-44
2024/01/03 10:55:47;;;;;;;2.33;0.90;;;20.80;48.90;;;;;;10249115;28;20569;-43
2024/01/03 11:00:51;;;;;;;2.10;0.90;;;20.80;48.80;;;;;;10237785;28;20043;-43
2024/01/03 11:06:04;;;;;;;2.58;0.98;;;20.80;48.90;;;;;;10246126;28;20057;-44
2024/01/03 11:11:08;;;;;;;3.30;1.00;;;20.80;48.70;;;;;;10236195;28;20102;-44
2024/01/03 11:16:12;;;;;;;2.20;0.98;;;20.60;48.80;;;;;;10231074;28;20052;-44
2024/01/03 11:21:47;;;;;;;2.85;0.85;;;20.80;48.30;;;;;;10244473;28;20047;-45
2024/01/03 11:27:04;;;;;;;2.30;0.98;;;20.50;48.50;;;;;;10313696;28;20137;-44
2024/01/03 11:32:06;;;;;;;2.10;0.90;;;20.60;48.70;;;;;;10216316;28;20056;-43
2024/01/03 11:37:31;;;;;;;2.80;1.00;;;20.70;48.30;;;;;;10222386;28;20060;-45
2024/01/03 11:42:34;;;;;;;1.77;0.90;;;20.60;48.50;;;;;;10221317;28;20056;-43
2024/01/03 11:47:36;;;;;;;3.88;0.85;;;20.50;48.70;;;;;;10189058;28;20139;-44
2024/01/03 11:52:39;;;;;;;2.30;1.00;;;20.40;48.70;;;;;;10197010;28;20738;-41
2024/01/03 11:57:43;;;;;;;2.33;0.85;;;20.40;48.60;;;;;;10190808;28;20159;-42
2024/01/03 12:02:54;;;;;;;1.15;0.75;;;20.50;48.50;;;;;;10193103;28;20118;-42
2024/01/03 12:07:57;;;;;;;;;;;20.50;48.40;;;;;;10195132;28;20063;-42
2024/01/03 12:13:00;;;;;;;2.25;0.90;;;20.40;48.20;;;;;;10220907;28;19945;-42
2024/01/03 12:18:05;;;;;;;1.65;0.85;;;20.40;48.40;;;;;;10239785;28;20505;-43
2024/01/03 12:23:08;;;;;;;2.05;0.70;;;20.40;48.30;;;;;;10197477;28;20634;-42
2024/01/03 12:28:13;;;;;;;1.13;0.80;;;20.40;48.40;;;;;;10191107;28;20127;-41
2024/01/03 12:33:15;;;;;;;2.25;0.73;;;20.40;48.20;;;;;;10220618;28;20048;-45
2024/01/03 12:38:17;;;;;;;1.52;0.70;;;20.20;48.50;;;;;;10229382;28;20082;-43
2024/01/03 12:43:20;;;;;;;2.20;0.70;;;20.30;48.30;;;;;;10235385;28;20049;-41
2024/01/03 12:48:21;;;;;;;1.63;0.63;;;20.20;48.50;;;;;;10227513;28;20482;-41
2024/01/03 12:53:23;;;;;;;1.58;0.77;;;20.10;48.60;;;;;;10230299;28;20132;-41
2024/01/03 12:58:26;;;;;;;1.90;0.77;;;20.10;48.50;;;;;;10235004;28;20058;-42
2024/01/03 13:03:27;;;;;;;1.42;0.70;;;20.10;48.40;;;;;;10204270;28;20586;-43
2024/01/03 13:08:29;;;;;;;0.75;0.60;;;20.00;48.50;;;;;;10189492;29;20200;-42
2024/01/03 13:13:32;;;;;;;1.48;0.77;;;19.90;48.70;;;;;;10181853;29;20581;-42
2024/01/03 13:18:34;;;;;;;1.98;0.80;;;20.00;48.50;;;;;;10186098;29;20451;-43
2024/01/03 13:23:36;;;;;;;1.75;0.80;;;19.90;48.50;;;;;;10190761;28;20093;-42
2024/01/03 13:28:40;;;;;;;1.05;0.60;;;19.90;48.70;;;;;;10190959;29;20048;-43
2024/01/03 13:33:42;;;;;;;3.17;0.88;;;19.80;48.80;;;;;;10188755;29;20040;-42
2024/01/03 13:38:44;;;;;;;1.25;0.60;;;19.80;48.90;;;;;;10218831;28;20047;-42
2024/01/03 13:43:47;;;;;;;1.05;0.60;;;20.10;48.50;;;;;;10226492;28;20580;-42
2024/01/03 13:48:49;;;;;;;1.48;0.70;;;20.50;47.70;;;;;;10230175;28;20044;-42
2024/01/03 13:53:53;;;;;;;0.95;0.60;;;20.50;47.70;;;;;;10222901;28;20127;-43
2024/01/03 13:58:56;;;;;;;1.92;0.68;;;20.60;47.40;;;;;;10226712;28;20051;-42
2024/01/03 14:03:57;;;;;;;1.45;0.70;;;20.60;47.40;;;;;;10192513;28;20132;-43
2024/01/03 14:08:59;;;;;;;1.75;0.80;;;20.60;47.50;;;;;;10190478;29;20059;-44
2024/01/03 14:14:02;;;;;;;1.65;0.80;;;20.40;48.20;;;;;;10194563;28;20530;-45
2024/01/03 14:19:04;;;;;;;1.13;0.70;;;20.40;48.70;;;;;;10183649;28;20086;-43
2024/01/03 14:24:06;;;;;;;2.05;0.98;;;20.80;48.10;;;;;;10183526;29;20046;-42
2024/01/03 14:29:09;;;;;;;2.42;0.95;;;20.90;47.80;;;;;;10215066;28;20078;-43
2024/01/03 14:34:10;;;;;;;1.45;0.60;;;21.00;47.70;;;;;;10221267;28;20127;-42
2024/01/03 14:39:12;;;;;;;1.25;0.70;;;20.90;48.00;;;;;;10229121;28;20050;-45
2024/01/03 14:44:15;;;;;;;0.98;0.60;;;21.10;47.70;;;;;;10221112;28;20138;-42
2024/01/03 14:49:17;;;;;;;2.58;0.82;;;21.20;47.10;;;;;;10227801;28;20050;-43
2024/01/03 14:54:18;;;;;;;1.08;0.65;;;21.30;47.20;;;;;;10223937;28;20063;-42
2024/01/03 14:59:21;;;;;;;1.55;0.70;;;21.30;47.20;;;;;;10227363;28;20044;-42
2024/01/03 15:04:23;;;;;;;2.15;0.80;;;21.30;46.90;;;;;;10178691;28;20127;-46
2024/01/03 15:09:25;;;;;;;0.80;0.50;;;21.30;46.70;;;;;;10174973;28;20055;-42
2024/01/03 15:14:28;;;;;;;1.05;0.50;;;21.40;46.60;;;;;;10177841;28;20152;-42
2024/01/03 15:19:30;;;;;;;1.40;0.77;;;21.40;46.60;;;;;;10186380;28;20494;-46
2024/01/03 15:24:31;;;;;;;0.73;0.57;;;21.40;46.50;;;;;;10187753;28;20391;-42
2024/01/03 15:29:35;;;;;;;1.30;0.63;;;21.40;46.50;;;;;;10182271;28;20044;-43
2024/01/03 15:34:36;;;;;;;1.10;0.68;;;21.40;46.70;;;;;;10216824;28;20052;-52
2024/01/03 15:39:38;;;;;;;1.98;0.80;;;21.50;46.50;;;;;;10179445;28;20083;-43
2024/01/03 15:44:41;;;;;;;1.13;0.73;;;21.50;46.30;;;;;;10185582;28;20505;-43
2024/01/03 15:49:43;;;;;;;1.50;0.85;;;21.50;46.20;;;;;;10187037;28;20429;-42
2024/01/03 15:54:45;;;;;;;1.67;0.70;;;21.50;46.20;;;;;;10191530;28;20073;-42
2024/01/03 15:59:48;;;;;;;0.82;0.60;;;21.60;46.20;;;;;;10189139;28;20052;-42
2024/01/03 16:04:50;;;;;;;0.93;0.65;;;21.60;46.20;;;;;;10196410;28;20058;-44
2024/01/03 16:09:51;;;;;;;0.60;0.60;;;21.60;46.20;;;;;;10235741;28;20052;-42
2024/01/03 16:14:56;;;;;;;1.52;0.63;;;21.70;46.10;;;;;;10232164;28;20094;-43
2024/01/03 16:19:58;;;;;;;1.52;0.80;;;21.70;46.00;;;;;;10221512;28;20066;-43
2024/01/03 16:25:00;;;;;;;2.38;0.80;;;21.80;46.10;;;;;;10223868;28;20556;-42
2024/01/03 16:30:03;;;;;;;1.08;0.60;;;21.80;46.00;;;;;;10234735;28;20050;-42
2024/01/03 16:35:06;;;;;;;2.33;0.90;;;21.80;46.10;;;;;;10234196;28;20048;-43
2024/01/03 16:40:10;;;;;;;0.73;0.60;;;21.80;46.20;;;;;;10233515;28;20078;-42
2024/01/03 16:45:13;;;;;;;1.23;0.70;;;21.80;46.20;;;;;;10226362;28;20047;-43
2024/01/03 16:50:14;;;;;;;1.08;0.65;;;21.80;46.20;;;;;;10223421;28;20138;-42
2024/01/03 16:55:16;;;;;;;1.15;0.77;;;22.00;46.00;;;;;;10228400;28;20166;-42
2024/01/03 17:00:22;;;;;;;1.20;0.80;;;22.00;46.20;;;;;;10221617;28;20059;-42
2024/01/03 17:05:24;;;;;;;1.10;0.70;;;21.90;46.10;;;;;;10189359;29;20124;-42
2024/01/03 17:10:25;;;;;;;1.63;0.77;;;21.90;46.20;;;;;;10189292;29;20086;-42
2024/01/03 17:15:28;;;;;;;0.68;0.50;;;22.00;46.30;;;;;;10192374;28;20134;-42
2024/01/03 17:20:30;;;;;;;1.15;0.60;;;22.00;46.40;;;;;;10195735;28;20043;-42
2024/01/03 17:25:31;;;;;;;1.05;0.80;;;22.00;46.50;;;;;;10183687;28;20136;-42
2024/01/03 17:30:35;;;;;;;1.65;0.80;;;22.10;46.50;;;;;;10182825;28;20217;-42
2024/01/03 17:35:37;;;;;;;1.65;0.70;;;22.10;46.60;;;;;;10192783;28;20792;-42
2024/01/03 17:40:39;;;;;;;5.55;0.90;;;22.00;46.40;;;;;;10197574;28;20057;-42
2024/01/03 17:45:42;;;;;;;6.32;1.00;;;22.10;46.70;;;;;;10231044;28;20155;-42
2024/01/03 17:50:44;;;;;;;2.30;0.90;;;22.10;46.90;;;;;;10217423;28;20481;-43
2024/01/03 17:55:45;;;;;;;5.82;1.30;;;22.20;47.40;;;;;;10189410;28;20142;-42
2024/01/03 18:00:49;;;;;;;11.13;1.50;;;22.20;47.60;;;;;;10193142;28;20070;-42
2024/01/03 18:05:50;;;;;;;13.60;2.03;;;22.20;47.90;;;;;;10227393;28;20135;-42
2024/01/03 18:10:52;;;;;;;10.52;2.13;;;22.20;49.50;;;;;;10222596;28;20056;-44
2024/01/03 18:15:55;;;;;;;20.10;2.55;;;22.30;48.90;;;;;;10235532;28;20055;-45
2024/01/03 18:20:56;;;;;;;10.63;1.80;;;22.40;49.20;;;;;;10223486;28;20553;-43
2024/01/03 18:25:58;;;;;;;12.23;1.95;;;22.30;49.10;;;;;;10187527;28;20517;-42
2024/01/03 18:31:01;;;;;;;11.65;2.03;;;22.40;48.90;;;;;;10202571;28;20047;-42
2024/01/03 18:36:04;;;;;;;8.20;2.15;;;22.50;48.20;;;;;;10225810;28;20078;-44
2024/01/03 18:41:05;;;;;;;6.18;2.05;;;22.40;47.60;;;;;;10216549;28;20078;-45
2024/01/03 18:46:11;;;;;;;10.63;2.50;;;22.50;47.50;;;;;;10200636;28;20109;-45
2024/01/03 18:51:14;;;;;;;4.20;2.53;;;22.40;47.60;;;;;;10196980;28;20047;-44
2024/01/03 18:56:16;;;;;;;11.20;2.30;;;22.50;48.00;;;;;;10190396;28;20083;-42
2024/01/03 19:01:19;;;;;;;11.50;2.33;;;22.50;48.70;;;;;;10193503;28;20070;-44
2024/01/03 19:06:20;;;;;;;16.55;2.42;;;22.60;49.10;;;;;;10211143;28;20055;-42
2024/01/03 19:11:22;;;;;;;7.55;1.60;;;22.60;49.90;;;;;;10195744;28;20050;-42
2024/01/03 19:16:25;;;;;;;8.88;1.70;;;22.60;50.80;;;;;;10196058;28;20066;-41
2024/01/03 19:21:26;;;;;;;13.35;2.05;;;22.50;51.50;;;;;;10192030;28;20102;-42
2024/01/03 19:26:28;;;;;;;4.18;1.30;;;22.60;51.80;;;;;;10201302;28;20504;-41
2024/01/03 19:31:31;;;;;;;7.47;1.23;;;22.80;51.00;;;;;;10194200;28;20056;-42
2024/01/03 19:36:33;;;;;;;5.43;1.25;;;22.80;49.70;;;;;;10202743;28;20061;-44
2024/01/03 19:41:36;;;;;;;12.90;1.25;;;22.80;49.20;;;;;;10216764;28;20055;-42
2024/01/03 19:46:40;;;;;;;8.15;1.30;;;22.90;48.80;;;;;;10233173;28;20445;-42
2024/01/03 19:51:42;;;;;;;3.47;1.17;;;22.90;48.10;;;;;;10233167;28;20079;-47
2024/01/03 19:56:43;;;;;;;8.02;1.10;;;22.90;48.30;;;;;;10235518;28;20119;-43
2024/01/03 20:01:48;;;;;;;3.50;0.80;;;22.90;48.90;;;;;;10215859;28;22051;-44
2024/01/03 20:06:51;;;;;;;8.93;1.08;;;22.80;49.30;;;;;;10194330;28;20403;-46
2024/01/03 20:11:53;;;;;;;6.75;0.98;;;22.80;49.90;;;;;;10213279;28;20058;-42
2024/01/03 20:16:56;;;;;;;5.72;1.10;;;22.70;49.70;;;;;;10211733;28;20048;-43
2024/01/03 20:21:57;;;;;;;5.13;0.80;;;22.80;49.50;;;;;;10195641;29;20138;-43
2024/01/03 20:27:00;;;;;;;2.08;0.77;;;22.70;49.40;;;;;;10191359;29;20704;-43
2024/01/03 20:32:04;;;;;;;2.97;0.70;;;22.80;48.80;;;;;;10201970;28;20051;-42
2024/01/03 20:37:07;;;;;;;2.28;0.75;;;22.90;48.60;;;;;;10198605;28;20407;-44
2024/01/03 20:42:09;;;;;;;3.47;0.68;;;22.80;48.80;;;;;;10189803;29;20087;-42
2024/01/03 20:47:12;;;;;;;2.88;0.60;;;22.90;48.40;;;;;;10189788;29;20052;-42
2024/01/03 20:52:13;;;;;;;3.17;0.80;;;22.90;48.30;;;;;;10187547;29;20066;-42
2024/01/03 20:57:15;;;;;;;2.50;0.80;;;23.00;47.90;;;;;;10188730;29;20142;-42
2024/01/03 21:02:18;;;;;;;2.28;0.70;;;22.90;47.80;;;;;;10193949;29;20054;-43
2024/01/03 21:07:19;;;;;;;3.97;0.70;;;22.80;48.00;;;;;;10195163;28;20055;-42
2024/01/03 21:12:21;;;;;;;2.78;0.88;;;22.70;48.00;;;;;;10193351;28;20174;-42
2024/01/03 21:17:24;;;;;;;2.05;0.70;;;22.50;48.20;;;;;;10194626;28;20130;-45
2024/01/03 21:22:26;;;;;;;2.85;0.70;;;22.40;48.40;;;;;;10185638;28;20040;-42
2024/01/03 21:27:27;;;;;;;1.65;0.70;;;22.40;48.40;;;;;;10188779;29;20048;-46
2024/01/03 21:32:30;;;;;;;1.35;0.70;;;22.30;48.40;;;;;;10192953;28;20138;-46
2024/01/03 21:37:32;;;;;;;1.63;0.60;;;22.20;48.60;;;;;;10195945;29;20078;-44
2024/01/03 21:42:34;;;;;;;3.92;0.70;;;22.20;48.40;;;;;;10188653;29;20047;-44
2024/01/03 21:47:40;;;;;;;2.30;0.60;;;22.10;48.60;;;;;;10193262;28;20040;-42
2024/01/03 21:52:45;;;;;;;2.38;0.88;;;21.90;48.90;;;;;;10185831;28;20056;-43
2024/01/03 21:57:47;;;;;;;1.05;0.55;;;22.20;48.00;;;;;;10221717;28;20101;-42
2024/01/03 22:02:51;;;;;;;2.33;0.57;;;22.20;48.00;;;;;;10225978;28;20568;-46
2024/01/03 22:07:53;;;;;;;1.90;0.50;;;22.20;47.60;;;;;;10228437;28;20082;-43
2024/01/03 22:12:54;;;;;;;0.68;0.50;;;22.30;47.50;;;;;;10223879;28;20061;-41
2024/01/03 22:17:58;;;;;;;0.75;0.50;;;22.10;48.00;;;;;;10228018;28;20055;-46
2024/01/03 22:23:00;;;;;;;2.38;0.60;;;22.10;47.70;;;;;;10230352;28;20069;-44
2024/01/03 22:28:01;;;;;;;0.77;0.43;;;22.30;47.10;;;;;;10230714;28;20047;-42
2024/01/03 22:33:05;;;;;;;1.00;0.50;;;22.00;47.50;;;;;;10226327;28;20053;-42
2024/01/03 22:38:07;;;;;;;1.33;0.68;;;22.00;47.60;;;;;;10233842;28;20516;-42
2024/01/03 22:43:08;;;;;;;0.35;0.35;;;22.00;47.50;;;;;;10230311;28;21507;-42
2024/01/03 22:48:11;;;;;;;1.42;0.50;;;21.90;47.50;;;;;;10233968;28;20397;-42
2024/01/03 22:53:13;;;;;;;0.95;0.50;;;22.00;47.40;;;;;;10217621;28;20130;-42
2024/01/03 22:58:14;;;;;;;0.82;0.50;;;22.00;47.10;;;;;;10230144;28;20047;-42
2024/01/03 23:03:17;;;;;;;0.88;0.50;;;22.00;47.00;;;;;;10236458;28;20043;-42
2024/01/03 23:08:19;;;;;;;0.55;0.43;;;22.00;46.80;;;;;;10238448;28;20047;-42
2024/01/03 23:13:20;;;;;;;1.30;0.63;;;21.90;47.00;;;;;;10235446;28;20050;-43
2024/01/03 23:18:24;;;;;;;0.60;0.40;;;21.80;47.00;;;;;;10232084;28;20134;-47
2024/01/03 23:23:26;;;;;;;1.10;0.50;;;21.90;47.00;;;;;;10225876;28;20055;-42
2024/01/03 23:28:28;;;;;;;1.25;0.45;;;21.70;47.10;;;;;;10230585;28;20055;-42
2024/01/03 23:33:31;;;;;;;0.70;0.40;;;21.60;47.30;;;;;;10237175;28;20043;-42
2024/01/03 23:38:33;;;;;;;1.38;0.50;;;21.50;47.30;;;;;;10236469;28;20576;-45
2024/01/03 23:43:34;;;;;;;0.55;0.40;;;21.50;47.30;;;;;;10229770;28;20070;-42
2024/01/03 23:48:38;;;;;;;1.05;0.50;;;21.40;47.30;;;;;;10236073;28;20058;-42
2024/01/03 23:53:41;;;;;;;1.42;0.50;;;21.30;47.60;;;;;;10239417;28;20043;-45
2024/01/03 23:58:42;;;;;;;1.38;0.52;;;21.30;47.60;;;;;;10243663;28;20139;-43
